createdAt,value
2019-05-29T00:02:07.953Z,11.70
2019-05-29T00:04:57.346Z,11.70
2019-05-29T00:07:46.760Z,11.70
2019-05-29T00:10:35.620Z,11.60
2019-05-29T00:13:24.567Z,11.50
2019-05-29T00:16:14.511Z,11.60
2019-05-29T00:19:03.316Z,11.60
2019-05-29T00:21:52.719Z,11.50
2019-05-29T00:24:41.800Z,11.40
2019-05-29T00:27:30.763Z,11.30
2019-05-29T00:30:19.958Z,11.30
2019-05-29T00:33:10.113Z,11.30
2019-05-29T00:35:59.190Z,11.20
2019-05-29T00:38:48.606Z,11.20
2019-05-29T00:41:37.389Z,11.20
2019-05-29T00:44:34.216Z,11.10
2019-05-29T00:47:17.732Z,11.10
2019-05-29T00:50:08.014Z,11.00
2019-05-29T00:52:56.923Z,11.00
2019-05-29T00:55:46.255Z,11.00
2019-05-29T00:58:35.005Z,11.00
2019-05-29T01:01:24.047Z,10.90
2019-05-29T01:04:13.620Z,10.80
2019-05-29T01:07:02.382Z,10.90
2019-05-29T01:09:51.167Z,10.80
2019-05-29T01:12:39.821Z,10.80
2019-05-29T01:15:28.886Z,10.80
2019-05-29T01:18:18.020Z,10.70
2019-05-29T01:21:07.202Z,10.70
2019-05-29T01:23:56.173Z,10.70
2019-05-29T01:26:45.181Z,10.70
2019-05-29T01:29:33.999Z,10.70
2019-05-29T01:32:23.740Z,10.70
2019-05-29T01:35:13.805Z,10.60
2019-05-29T01:38:02.803Z,10.50
2019-05-29T01:40:51.909Z,10.50
2019-05-29T01:43:40.897Z,10.50
2019-05-29T01:46:30.237Z,10.50
2019-05-29T01:49:19.641Z,10.60
2019-05-29T01:52:09.213Z,10.50
2019-05-29T01:54:58.427Z,10.50
2019-05-29T01:57:48.218Z,10.50
2019-05-29T02:00:37.334Z,10.50
2019-05-29T02:03:28.153Z,10.40
2019-05-29T02:06:17.836Z,10.40
2019-05-29T02:09:07.701Z,10.40
2019-05-29T02:11:57.355Z,10.50
2019-05-29T02:14:46.482Z,10.50
2019-05-29T02:17:37.501Z,10.40
2019-05-29T02:20:27.511Z,10.50
2019-05-29T02:23:17.787Z,10.50
2019-05-29T02:26:07.444Z,10.40
2019-05-29T02:28:56.577Z,10.40
2019-05-29T02:31:45.537Z,10.30
2019-05-29T02:34:35.016Z,10.30
2019-05-29T02:37:24.419Z,10.20
2019-05-29T02:40:14.338Z,10.20
2019-05-29T02:43:03.317Z,10.10
2019-05-29T02:45:54.814Z,10.10
2019-05-29T02:48:42.482Z,10.10
2019-05-29T02:51:31.649Z,10.00
2019-05-29T02:54:22.393Z,9.90
2019-05-29T02:57:10.879Z,9.90
2019-05-29T03:00:00.081Z,9.90
2019-05-29T03:02:48.833Z,9.90
2019-05-29T03:05:38.452Z,9.90
2019-05-29T03:08:29.654Z,9.70
2019-05-29T03:11:18.171Z,9.70
2019-05-29T03:14:07.298Z,9.60
2019-05-29T03:16:56.222Z,9.60
2019-05-29T03:19:45.646Z,9.60
2019-05-29T03:22:35.343Z,9.60
2019-05-29T03:25:24.466Z,9.60
2019-05-29T03:28:14.021Z,9.60
2019-05-29T03:31:03.334Z,9.70
2019-05-29T03:33:52.320Z,9.70
2019-05-29T03:36:47.219Z,9.70
2019-05-29T03:39:32.330Z,9.70
2019-05-29T03:42:20.948Z,9.70
2019-05-29T03:45:10.569Z,9.70
2019-05-29T03:48:00.102Z,9.70
2019-05-29T03:50:49.562Z,9.70
2019-05-29T03:53:39.060Z,9.60
2019-05-29T03:56:28.392Z,9.50
2019-05-29T03:59:17.518Z,9.40
2019-05-29T04:02:07.281Z,9.40
2019-05-29T04:04:56.379Z,9.30
2019-05-29T04:07:45.512Z,9.40
2019-05-29T04:10:37.371Z,9.40
2019-05-29T04:13:27.253Z,9.40
2019-05-29T04:16:16.664Z,9.40
2019-05-29T04:19:05.891Z,9.30
2019-05-29T04:21:57.883Z,9.40
2019-05-29T04:24:48.583Z,9.40
2019-05-29T04:27:40.238Z,9.30
2019-05-29T04:30:30.043Z,9.40
2019-05-29T04:33:19.355Z,9.40
2019-05-29T04:36:08.777Z,9.50
2019-05-29T04:38:58.035Z,9.50
2019-05-29T04:41:47.121Z,9.60
2019-05-29T04:44:38.962Z,9.60
2019-05-29T04:47:26.746Z,9.60
2019-05-29T04:50:16.973Z,9.60
2019-05-29T04:53:06.394Z,9.70
2019-05-29T04:55:56.306Z,9.70
2019-05-29T04:58:45.762Z,9.70
2019-05-29T05:01:15.950Z,9.80
2019-05-29T05:03:46.184Z,9.90
2019-05-29T05:06:18.750Z,9.90
2019-05-29T05:08:48.889Z,9.90
2019-05-29T05:11:19.409Z,10.00
2019-05-29T05:13:49.411Z,10.00
2019-05-29T05:16:19.600Z,10.00
2019-05-29T05:19:08.234Z,10.10
2019-05-29T05:21:38.606Z,10.10
2019-05-29T05:24:09.058Z,10.10
2019-05-29T05:26:40.474Z,10.20
2019-05-29T05:29:10.893Z,10.20
2019-05-29T05:31:41.212Z,10.20
2019-05-29T05:34:11.553Z,10.20
2019-05-29T05:36:41.878Z,10.30
2019-05-29T05:39:12.010Z,10.30
2019-05-29T05:41:42.565Z,10.40
2019-05-29T05:44:13.051Z,10.40
2019-05-29T05:46:43.265Z,10.50
2019-05-29T05:49:13.575Z,10.50
2019-05-29T05:51:44.756Z,10.60
2019-05-29T05:54:15.122Z,10.70
2019-05-29T05:56:45.536Z,10.70
2019-05-29T05:59:35.650Z,10.80
2019-05-29T06:02:05.982Z,10.80
2019-05-29T06:04:55.137Z,10.90
2019-05-29T06:07:43.903Z,10.90
2019-05-29T06:10:34.013Z,11.00
2019-05-29T06:13:23.090Z,11.00
2019-05-29T06:16:12.596Z,11.00
2019-05-29T06:19:02.200Z,11.00
2019-05-29T06:21:52.132Z,11.00
2019-05-29T06:24:41.198Z,11.10
2019-05-29T06:27:30.382Z,11.10
2019-05-29T06:30:20.762Z,11.20
2019-05-29T06:33:09.880Z,11.20
2019-05-29T06:35:59.073Z,11.20
2019-05-29T06:38:48.430Z,11.30
2019-05-29T06:41:37.812Z,11.30
2019-05-29T06:44:27.083Z,11.40
2019-05-29T06:47:15.903Z,11.40
2019-05-29T06:50:06.133Z,11.40
2019-05-29T06:52:55.012Z,11.50
2019-05-29T06:55:44.587Z,11.50
2019-05-29T06:58:35.797Z,11.60
2019-05-29T07:01:24.733Z,11.60
2019-05-29T07:04:13.978Z,11.70
2019-05-29T07:07:03.170Z,11.70
2019-05-29T07:09:52.450Z,11.70
2019-05-29T07:12:42.372Z,11.70
2019-05-29T07:15:32.707Z,11.80
2019-05-29T07:18:22.197Z,11.80
2019-05-29T07:21:11.179Z,11.90
2019-05-29T07:24:00.090Z,11.90
2019-05-29T07:26:30.461Z,11.90
2019-05-29T07:29:07.954Z,11.90
2019-05-29T07:31:32.480Z,11.90
2019-05-29T07:34:02.693Z,11.90
2019-05-29T07:36:32.845Z,12.00
2019-05-29T07:39:22.254Z,12.00
2019-05-29T07:42:11.301Z,12.00
2019-05-29T07:45:00.104Z,12.10
2019-05-29T07:47:49.398Z,12.10
2019-05-29T07:50:40.077Z,12.30
2019-05-29T07:53:29.423Z,12.30
2019-05-29T07:56:22.631Z,12.40
2019-05-29T07:59:08.956Z,12.40
2019-05-29T08:01:58.405Z,12.40
2019-05-29T08:04:47.211Z,12.50
2019-05-29T08:07:37.196Z,12.60
2019-05-29T08:10:26.309Z,12.60
2019-05-29T08:13:15.349Z,12.70
2019-05-29T08:16:04.891Z,12.80
2019-05-29T08:18:54.479Z,12.90
2019-05-29T08:21:44.311Z,13.00
2019-05-29T08:24:33.587Z,13.10
2019-05-29T08:27:22.212Z,13.20
2019-05-29T08:30:12.542Z,13.30
2019-05-29T08:33:01.699Z,13.40
2019-05-29T08:35:59.316Z,13.50
2019-05-29T08:38:44.151Z,13.60
2019-05-29T08:41:33.129Z,13.70
2019-05-29T08:44:22.298Z,13.70
2019-05-29T08:47:11.861Z,13.80
2019-05-29T08:50:17.375Z,13.90
2019-05-29T08:52:52.208Z,14.00
2019-05-29T08:55:42.105Z,14.10
2019-05-29T08:58:31.205Z,14.20
2019-05-29T09:01:20.717Z,14.20
2019-05-29T09:04:09.842Z,14.30
2019-05-29T09:06:59.347Z,14.40
2019-05-29T09:09:49.064Z,14.50
2019-05-29T09:12:38.682Z,14.60
2019-05-29T09:15:28.080Z,14.60
2019-05-29T09:18:17.413Z,14.70
2019-05-29T09:21:06.537Z,14.70
2019-05-29T09:23:58.698Z,14.80
2019-05-29T09:26:46.639Z,15.00
2019-05-29T09:29:36.196Z,15.10
2019-05-29T09:32:47.584Z,15.10
2019-05-29T09:35:16.120Z,15.10
2019-05-29T09:38:06.951Z,15.10
2019-05-29T09:40:56.210Z,15.10
2019-05-29T09:43:58.366Z,15.30
2019-05-29T09:46:36.249Z,15.40
2019-05-29T09:49:26.066Z,15.30
2019-05-29T09:52:15.766Z,15.40
2019-05-29T09:55:04.981Z,15.40
2019-05-29T09:57:55.416Z,15.40
2019-05-29T10:00:45.608Z,15.40
2019-05-29T10:03:34.424Z,15.60
2019-05-29T10:06:23.179Z,15.60
2019-05-29T10:09:12.403Z,15.60
2019-05-29T10:12:06.349Z,15.60
2019-05-29T10:14:52.142Z,15.70
2019-05-29T10:17:41.766Z,15.80
2019-05-29T10:20:31.126Z,15.80
2019-05-29T10:23:20.247Z,15.80
2019-05-29T10:26:10.216Z,15.90
2019-05-29T10:29:07.987Z,16.10
2019-05-29T10:31:51.116Z,16.10
2019-05-29T10:34:21.233Z,16.20
2019-05-29T10:36:54.328Z,16.30
2019-05-29T10:39:42.824Z,16.30
2019-05-29T10:42:32.324Z,16.40
2019-05-29T10:45:03.384Z,16.30
2019-05-29T10:47:33.567Z,16.40
2019-05-29T10:50:03.940Z,16.30
2019-05-29T10:52:52.573Z,16.30
2019-05-29T10:55:41.568Z,16.30
2019-05-29T10:58:30.159Z,16.40
2019-05-29T11:01:19.645Z,16.60
2019-05-29T11:04:08.449Z,16.70
2019-05-29T11:06:57.441Z,16.70
2019-05-29T11:09:48.436Z,16.80
2019-05-29T11:12:39.593Z,16.80
2019-05-29T11:15:30.323Z,16.80
2019-05-29T11:18:19.425Z,16.80
2019-05-29T11:21:08.703Z,16.90
2019-05-29T11:23:58.295Z,16.90
2019-05-29T11:26:48.376Z,17.00
2019-05-29T11:29:37.853Z,17.00
2019-05-29T11:32:08.242Z,17.10
2019-05-29T11:34:39.573Z,17.00
2019-05-29T11:37:09.921Z,17.00
2019-05-29T11:39:40.446Z,17.10
2019-05-29T11:42:26.265Z,17.10
2019-05-29T11:44:43.036Z,17.20
2019-05-29T11:47:13.356Z,17.30
2019-05-29T11:49:43.671Z,17.40
2019-05-29T11:52:24.516Z,17.40
2019-05-29T11:54:45.641Z,17.40
2019-05-29T11:57:15.934Z,17.40
2019-05-29T11:59:46.320Z,17.40
2019-05-29T12:02:16.648Z,17.40
2019-05-29T12:04:46.852Z,17.40
2019-05-29T12:07:17.220Z,17.40
2019-05-29T12:09:47.598Z,17.40
2019-05-29T12:12:17.972Z,17.40
2019-05-29T12:15:00.240Z,17.40
2019-05-29T12:17:20.181Z,17.50
2019-05-29T12:19:51.798Z,17.70
2019-05-29T12:22:22.160Z,17.70
2019-05-29T12:24:52.658Z,17.80
2019-05-29T12:27:22.974Z,17.80
2019-05-29T12:29:54.523Z,17.80
2019-05-29T12:32:25.275Z,17.80
2019-05-29T12:34:57.166Z,17.80
2019-05-29T12:37:27.362Z,17.90
2019-05-29T12:39:57.779Z,17.90
2019-05-29T12:42:27.901Z,18.00
2019-05-29T12:44:59.506Z,18.00
2019-05-29T12:47:33.009Z,18.10
2019-05-29T12:50:04.320Z,18.20
2019-05-29T12:52:34.556Z,18.20
2019-05-29T12:55:23.519Z,18.30
2019-05-29T12:58:12.961Z,18.30
2019-05-29T13:01:02.945Z,18.40
2019-05-29T13:03:54.018Z,18.30
2019-05-29T13:06:44.077Z,18.30
2019-05-29T13:09:33.996Z,18.30
2019-05-29T13:12:23.281Z,18.40
2019-05-29T13:15:13.249Z,18.50
2019-05-29T13:18:09.117Z,18.60
2019-05-29T13:20:53.387Z,18.70
2019-05-29T13:23:45.410Z,18.90
2019-05-29T13:26:34.079Z,19.00
2019-05-29T13:29:24.025Z,19.10
2019-05-29T13:32:13.196Z,19.10
2019-05-29T13:34:43.518Z,19.10
2019-05-29T13:37:15.004Z,19.20
2019-05-29T13:39:45.619Z,19.20
2019-05-29T13:42:16.155Z,19.20
2019-05-29T13:44:48.635Z,19.20
2019-05-29T13:47:19.165Z,19.20
2019-05-29T13:49:49.383Z,19.30
2019-05-29T13:52:19.545Z,19.50
2019-05-29T13:54:49.955Z,19.60
2019-05-29T13:57:20.181Z,19.80
2019-05-29T13:59:50.282Z,20.00
2019-05-29T14:02:20.597Z,20.30
2019-05-29T14:04:51.712Z,20.40
2019-05-29T14:07:22.410Z,20.40
2019-05-29T14:09:52.973Z,20.50
2019-05-29T14:12:23.570Z,20.60
2019-05-29T14:14:53.581Z,20.70
2019-05-29T14:17:23.897Z,20.70
2019-05-29T14:19:54.257Z,20.70
2019-05-29T14:22:24.567Z,20.50
2019-05-29T14:24:54.627Z,20.40
2019-05-29T14:27:24.903Z,20.40
2019-05-29T14:29:55.463Z,20.30
2019-05-29T14:32:28.290Z,20.30
2019-05-29T14:34:57.851Z,20.20
2019-05-29T14:37:28.069Z,20.20
2019-05-29T14:39:58.428Z,20.30
2019-05-29T14:42:29.073Z,20.40
2019-05-29T14:44:59.564Z,20.40
2019-05-29T14:47:30.287Z,20.50
2019-05-29T14:50:02.389Z,20.60
2019-05-29T14:52:32.758Z,20.70
2019-05-29T14:55:04.563Z,20.70
2019-05-29T14:57:34.900Z,20.70
2019-05-29T15:00:17.249Z,20.70
2019-05-29T15:02:38.376Z,20.60
2019-05-29T15:05:09.775Z,20.40
2019-05-29T15:07:58.689Z,20.40
2019-05-29T15:10:47.465Z,20.50
2019-05-29T15:13:36.647Z,20.60
2019-05-29T15:16:26.399Z,20.70
2019-05-29T15:19:16.214Z,20.80
2019-05-29T15:22:09.281Z,20.90
2019-05-29T15:25:08.107Z,21.10
2019-05-29T15:27:48.773Z,21.40
2019-05-29T15:30:37.727Z,21.60
2019-05-29T15:33:26.509Z,21.70
2019-05-29T15:36:16.854Z,21.80
2019-05-29T15:39:10.562Z,22.00
2019-05-29T15:41:59.873Z,22.10
2019-05-29T15:44:48.426Z,22.20
2019-05-29T15:47:37.610Z,22.20
2019-05-29T15:50:27.239Z,22.20
2019-05-29T15:53:17.257Z,22.30
2019-05-29T15:56:20.160Z,22.40
2019-05-29T15:58:57.705Z,22.60
2019-05-29T16:01:47.328Z,22.80
2019-05-29T16:04:36.460Z,23.00
2019-05-29T16:07:25.615Z,23.20
2019-05-29T16:10:18.774Z,23.20
2019-05-29T16:13:08.707Z,23.40
2019-05-29T16:16:00.048Z,23.40
2019-05-29T16:18:49.555Z,23.20
2019-05-29T16:21:38.472Z,23.10
2019-05-29T16:24:27.991Z,23.20
2019-05-29T16:27:08.255Z,23.30
2019-05-29T16:29:48.943Z,23.30
2019-05-29T16:32:37.893Z,23.00
2019-05-29T16:35:27.312Z,22.80
2019-05-29T16:38:17.625Z,22.70
2019-05-29T16:40:48.168Z,22.50
2019-05-29T16:43:37.160Z,22.30
2019-05-29T16:46:26.322Z,22.20
2019-05-29T16:49:17.147Z,22.10
2019-05-29T16:52:06.338Z,22.10
2019-05-29T16:54:37.801Z,22.00
2019-05-29T16:57:27.295Z,21.80
2019-05-29T17:00:17.576Z,21.70
2019-05-29T17:03:06.627Z,21.70
2019-05-29T17:05:55.809Z,21.60
2019-05-29T17:08:28.661Z,21.50
2019-05-29T17:11:23.382Z,21.40
2019-05-29T17:14:12.583Z,21.40
2019-05-29T17:17:02.388Z,21.30
2019-05-29T17:19:51.432Z,21.20
2019-05-29T17:22:25.741Z,21.30
2019-05-29T17:25:16.724Z,21.30
2019-05-29T17:28:06.129Z,21.30
2019-05-29T17:30:55.410Z,21.20
2019-05-29T17:33:44.735Z,21.20
2019-05-29T17:36:25.278Z,21.20
2019-05-29T17:39:13.144Z,21.20
2019-05-29T17:42:02.005Z,21.10
2019-05-29T17:44:51.344Z,21.00
2019-05-29T17:47:40.102Z,20.90
2019-05-29T17:50:30.071Z,20.90
2019-05-29T17:53:19.951Z,20.90
2019-05-29T17:56:23.369Z,20.80
2019-05-29T17:59:00.394Z,20.80
2019-05-29T18:01:50.700Z,20.70
2019-05-29T18:04:40.781Z,20.60
2019-05-29T18:07:29.918Z,20.70
2019-05-29T18:10:22.030Z,20.60
2019-05-29T18:13:10.624Z,20.60
2019-05-29T18:16:00.416Z,20.50
2019-05-29T18:18:50.136Z,20.40
2019-05-29T18:21:38.980Z,20.40
2019-05-29T18:24:09.662Z,20.30
2019-05-29T18:26:46.923Z,20.30
2019-05-29T18:29:12.241Z,20.20
2019-05-29T18:31:43.125Z,20.20
2019-05-29T18:34:13.707Z,20.10
2019-05-29T18:36:43.682Z,20.00
2019-05-29T18:39:13.828Z,19.90
2019-05-29T18:41:43.937Z,19.90
2019-05-29T18:44:14.148Z,19.80
2019-05-29T18:46:44.561Z,19.70
2019-05-29T18:49:15.373Z,19.70
2019-05-29T18:51:46.361Z,19.70
2019-05-29T18:54:16.608Z,19.60
2019-05-29T18:57:11.173Z,19.60
2019-05-29T18:59:18.732Z,19.60
2019-05-29T19:01:48.947Z,19.60
2019-05-29T19:04:19.533Z,19.50
2019-05-29T19:06:49.566Z,19.50
2019-05-29T19:09:19.931Z,19.50
2019-05-29T19:11:50.670Z,19.40
2019-05-29T19:14:21.771Z,19.40
2019-05-29T19:16:52.409Z,19.30
2019-05-29T19:19:23.948Z,19.30
2019-05-29T19:21:54.599Z,19.10
2019-05-29T19:24:24.818Z,19.10
2019-05-29T19:26:55.025Z,19.00
2019-05-29T19:29:26.856Z,18.90
2019-05-29T19:31:57.333Z,18.80
2019-05-29T19:34:46.400Z,18.80
2019-05-29T19:37:35.652Z,18.70
2019-05-29T19:40:09.531Z,18.70
2019-05-29T19:43:00.724Z,18.60
2019-05-29T19:45:49.967Z,18.60
2019-05-29T19:48:39.131Z,18.60
2019-05-29T19:51:29.180Z,18.60
2019-05-29T19:54:18.192Z,18.50
2019-05-29T19:57:09.424Z,18.50
2019-05-29T19:59:58.693Z,18.40
2019-05-29T20:02:48.345Z,18.40
2019-05-29T20:05:43.514Z,18.40
2019-05-29T20:08:36.222Z,18.30
2019-05-29T20:11:24.227Z,18.30
2019-05-29T20:14:13.406Z,18.30
2019-05-29T20:17:02.651Z,18.30
2019-05-29T20:19:52.161Z,18.30
2019-05-29T20:22:41.204Z,18.30
2019-05-29T20:25:30.757Z,18.20
2019-05-29T20:28:20.153Z,18.20
2019-05-29T20:31:11.915Z,18.10
2019-05-29T20:33:59.778Z,18.10
2019-05-29T20:36:49.066Z,18.00
2019-05-29T20:39:39.550Z,18.00
2019-05-29T20:42:28.163Z,17.90
2019-05-29T20:45:17.703Z,17.80
2019-05-29T20:48:06.732Z,17.80
2019-05-29T20:50:56.290Z,17.70
2019-05-29T20:53:45.604Z,17.70
2019-05-29T20:56:35.846Z,17.60
2019-05-29T20:59:25.471Z,17.50
2019-05-29T21:02:14.907Z,17.50
2019-05-29T21:05:04.012Z,17.40
2019-05-29T21:07:53.268Z,17.40
2019-05-29T21:10:42.135Z,17.30
2019-05-29T21:13:33.208Z,17.30
2019-05-29T21:16:22.937Z,17.20
2019-05-29T21:19:12.245Z,17.20
2019-05-29T21:22:01.933Z,17.20
2019-05-29T21:25:02.451Z,17.10
2019-05-29T21:27:48.804Z,17.10
2019-05-29T21:30:35.584Z,17.00
2019-05-29T21:33:25.109Z,17.00
2019-05-29T21:36:14.709Z,17.00
2019-05-29T21:39:03.509Z,16.90
2019-05-29T21:41:52.889Z,16.90
2019-05-29T21:44:42.866Z,16.80
2019-05-29T21:47:32.460Z,16.80
2019-05-29T21:50:21.735Z,16.80
2019-05-29T21:53:11.384Z,16.70
2019-05-29T21:56:01.079Z,16.80
2019-05-29T21:59:02.998Z,16.70
2019-05-29T22:01:42.073Z,16.70
2019-05-29T22:04:32.081Z,16.70
2019-05-29T22:07:21.256Z,16.70
2019-05-29T22:10:10.994Z,16.70
2019-05-29T22:13:01.070Z,16.70
2019-05-29T22:15:50.677Z,16.60
2019-05-29T22:18:40.079Z,16.60
2019-05-29T22:21:29.431Z,16.60
2019-05-29T22:24:18.617Z,16.60
2019-05-29T22:27:08.293Z,16.60
2019-05-29T22:29:57.414Z,16.60
2019-05-29T22:32:47.132Z,16.60
2019-05-29T22:35:36.365Z,16.50
2019-05-29T22:38:25.732Z,16.50
2019-05-29T22:41:15.385Z,16.50
2019-05-29T22:44:05.013Z,16.50
2019-05-29T22:46:55.628Z,16.50
2019-05-29T22:49:45.385Z,16.50
2019-05-29T22:52:34.646Z,16.40
2019-05-29T22:55:23.935Z,16.50
2019-05-29T22:58:13.299Z,16.40
2019-05-29T23:01:02.893Z,16.50
2019-05-29T23:03:52.068Z,16.40
2019-05-29T23:06:41.801Z,16.50
2019-05-29T23:09:30.736Z,16.50
2019-05-29T23:12:20.624Z,16.50
2019-05-29T23:15:10.493Z,16.50
2019-05-29T23:18:00.673Z,16.50
2019-05-29T23:20:50.348Z,16.50
2019-05-29T23:23:40.501Z,16.60
2019-05-29T23:26:29.994Z,16.60
2019-05-29T23:29:19.746Z,16.60
2019-05-29T23:32:09.065Z,16.60
2019-05-29T23:34:59.160Z,16.50
2019-05-29T23:37:48.519Z,16.50
2019-05-29T23:40:37.839Z,16.50
2019-05-29T23:43:27.244Z,16.50
2019-05-29T23:46:17.162Z,16.50
2019-05-29T23:49:06.838Z,16.50
2019-05-29T23:51:55.905Z,16.50
2019-05-29T23:54:44.988Z,16.50
2019-05-29T23:57:34.504Z,16.50
